Time;durP1;ratioP1;P1;durP2;ratioP2;P2;SDS_P1;SDS_P2;PMS_P1;PMS_P2;Temp;Humidity;BMP_temperature;BMP_pressure;BME280_temperature;BME280_humidity;BME280_pressure;Samples;Min_cycle;Max_cycle;Signal;HPM_P1;HPM_P2
2022/09/11 00:00:08;;;;;;;3.80;3.40;;;;;;;;;;4988741;28;20038;-65
2022/09/11 00:02:34;;;;;;;6.10;3.00;;;;;;;;;;4978728;28;20030;-64
2022/09/11 00:04:59;;;;;;;4.35;3.40;;;;;;;;;;4981516;28;20036;-67
2022/09/11 00:07:26;;;;;;;6.03;3.65;;;;;;;;;;4980182;28;20042;-65
2022/09/11 00:09:52;;;;;;;3.90;3.60;;;;;;;;;;4980391;28;20042;-64
2022/09/11 00:12:19;;;;;;;7.70;3.63;;;;;;;;;;4977489;28;20030;-66
2022/09/11 00:14:44;;;;;;;4.38;3.65;;;;;;;;;;4980791;28;20038;-66
2022/09/11 00:17:11;;;;;;;5.80;3.85;;;;;;;;;;4984218;28;20042;-67
2022/09/11 00:19:41;;;;;;;5.18;3.47;;;;;;;;;;4980457;28;20582;-66
2022/09/11 00:22:06;;;;;;;4.82;4.10;;;;;;;;;;4983289;28;20466;-66
2022/09/11 00:24:31;;;;;;;5.65;4.10;;;;;;;;;;4982737;28;20046;-66
2022/09/11 00:26:57;;;;;;;7.20;3.85;;;;;;;;;;4981955;28;20096;-66
2022/09/11 00:29:23;;;;;;;4.32;3.83;;;;;;;;;;4981672;28;20574;-66
2022/09/11 00:31:48;;;;;;;4.38;3.92;;;;;;;;;;4978937;28;20081;-66
2022/09/11 00:34:14;;;;;;;8.20;4.03;;;;;;;;;;4978274;28;20039;-64
2022/09/11 00:36:43;;;;;;;4.32;3.92;;;;;;;;;;4981077;28;20074;-64
2022/09/11 00:39:10;;;;;;;4.80;3.95;;;;;;;;;;4982864;28;20038;-66
2022/09/11 00:41:39;;;;;;;9.30;4.80;;;;;;;;;;4978038;28;20029;-64
2022/09/11 00:44:07;;;;;;;7.25;4.80;;;;;;;;;;4985725;28;20081;-66
2022/09/11 00:46:42;;;;;;;5.85;5.07;;;;;;;;;;4980232;28;20117;-65
2022/09/11 00:49:25;;;;;;;6.38;5.28;;;;;;;;;;4982481;28;20047;-66
2022/09/11 00:52:01;;;;;;;7.00;6.30;;;;;;;;;;4978353;28;20609;-65
2022/09/11 00:54:40;;;;;;;7.25;6.53;;;;;;;;;;4984274;28;20042;-64
2022/09/11 00:57:07;;;;;;;10.63;6.38;;;;;;;;;;4981456;28;20113;-65
2022/09/11 00:59:33;;;;;;;7.45;6.70;;;;;;;;;;4977009;28;20826;-64
2022/09/11 01:02:01;;;;;;;7.88;6.82;;;;;;;;;;4980936;28;20513;-65
2022/09/11 01:04:28;;;;;;;7.20;6.45;;;;;;;;;;4979230;28;20172;-72
2022/09/11 01:06:56;;;;;;;8.10;6.45;;;;;;;;;;4980039;28;20045;-67
2022/09/11 01:09:26;;;;;;;7.70;6.90;;;;;;;;;;4981373;28;20042;-65
2022/09/11 01:12:07;;;;;;;8.20;7.30;;;;;;;;;;4980139;28;20042;-65
2022/09/11 01:14:57;;;;;;;6.72;6.03;;;;;;;;;;5000302;28;20513;-65
2022/09/11 01:18:04;;;;;;;8.65;6.82;;;;;;;;;;5000189;28;20045;-64
2022/09/11 01:20:58;;;;;;;8.60;6.97;;;;;;;;;;4999772;28;20034;-67
2022/09/11 01:23:39;;;;;;;10.73;7.25;;;;;;;;;;4997754;28;20533;-65
2022/09/11 01:26:33;;;;;;;10.02;7.60;;;;;;;;;;4997999;28;20066;-66
2022/09/11 01:29:11;;;;;;;8.88;7.78;;;;;;;;;;5001675;28;20450;-65
2022/09/11 01:31:46;;;;;;;9.10;8.20;;;;;;;;;;4994961;28;20041;-65
2022/09/11 01:34:26;;;;;;;11.13;8.38;;;;;;;;;;4995988;28;20088;-67
2022/09/11 01:36:58;;;;;;;9.35;8.30;;;;;;;;;;4998682;28;20564;-65
2022/09/11 01:39:31;;;;;;;10.75;8.95;;;;;;;;;;4998962;28;20088;-65
2022/09/11 01:42:04;;;;;;;13.15;9.25;;;;;;;;;;4997896;28;20061;-64
2022/09/11 01:44:43;;;;;;;12.05;9.73;;;;;;;;;;4995857;28;20128;-65
2022/09/11 01:47:10;;;;;;;10.88;9.43;;;;;;;;;;4998445;28;20434;-64
2022/09/11 01:49:41;;;;;;;10.88;9.40;;;;;;;;;;4999884;28;20038;-65
2022/09/11 01:52:11;;;;;;;11.57;10.48;;;;;;;;;;4999131;28;20052;-64
2022/09/11 01:54:44;;;;;;;14.43;11.20;;;;;;;;;;4994888;28;20065;-64
2022/09/11 01:57:35;;;;;;;11.07;9.95;;;;;;;;;;4997649;28;20441;-65
2022/09/11 02:00:05;;;;;;;12.23;10.00;;;;;;;;;;5000209;28;20038;-64
2022/09/11 02:02:37;;;;;;;12.60;10.88;;;;;;;;;;4997261;28;20053;-64
2022/09/11 02:05:14;;;;;;;12.73;10.95;;;;;;;;;;4997590;28;20041;-64
2022/09/11 02:08:06;;;;;;;11.52;9.70;;;;;;;;;;4997914;28;20046;-64
2022/09/11 02:10:55;;;;;;;11.55;9.75;;;;;;;;;;4997822;28;20048;-64
2022/09/11 02:13:41;;;;;;;14.05;10.18;;;;;;;;;;4978870;28;20144;-63
2022/09/11 02:16:25;;;;;;;13.18;10.63;;;;;;;;;;5000397;28;20555;-64
2022/09/11 02:19:01;;;;;;;12.60;11.30;;;;;;;;;;4994697;28;20047;-64
2022/09/11 02:21:27;;;;;;;12.85;11.27;;;;;;;;;;4999715;28;20042;-65
2022/09/11 02:23:54;;;;;;;11.68;10.20;;;;;;;;;;4999260;28;20509;-64
2022/09/11 02:26:23;;;;;;;13.18;11.70;;;;;;;;;;4997103;28;20577;-64
2022/09/11 02:28:49;;;;;;;11.60;10.15;;;;;;;;;;4994665;28;20398;-64
2022/09/11 02:31:16;;;;;;;15.00;11.27;;;;;;;;;;4996580;28;20034;-65
2022/09/11 02:33:41;;;;;;;14.30;11.32;;;;;;;;;;4998308;28;20065;-65
2022/09/11 02:36:33;;;;;;;12.93;10.57;;;;;;;;;;4995590;28;20030;-65
2022/09/11 02:39:36;;;;;;;14.65;11.52;;;;;;;;;;5000838;28;20104;-64
2022/09/11 02:42:29;;;;;;;14.25;11.93;;;;;;;;;;4995315;28;20049;-64
2022/09/11 02:45:07;;;;;;;12.63;11.15;;;;;;;;;;5001579;28;20033;-65
2022/09/11 02:47:52;;;;;;;12.77;11.48;;;;;;;;;;4994885;28;20502;-64
2022/09/11 02:50:35;;;;;;;13.93;11.07;;;;;;;;;;4995573;28;20498;-64
2022/09/11 02:53:03;;;;;;;14.00;11.18;;;;;;;;;;4993026;28;20204;-63
2022/09/11 02:55:43;;;;;;;12.95;10.23;;;;;;;;;;4997458;28;20044;-64
2022/09/11 02:58:22;;;;;;;14.55;12.02;;;;;;;;;;4999950;28;20073;-64
2022/09/11 03:00:48;;;;;;;11.13;9.63;;;;;;;;;;4998289;28;20041;-65
2022/09/11 03:03:14;;;;;;;12.18;10.48;;;;;;;;;;4995980;28;20589;-64
2022/09/11 03:05:40;;;;;;;14.80;11.27;;;;;;;;;;4991872;28;20022;-64
2022/09/11 03:08:06;;;;;;;12.93;11.32;;;;;;;;;;4995869;28;20593;-65
2022/09/11 03:10:33;;;;;;;14.20;10.02;;;;;;;;;;4996630;28;20045;-64
2022/09/11 03:12:59;;;;;;;12.15;10.00;;;;;;;;;;4998146;28;20125;-64
2022/09/11 03:15:25;;;;;;;12.25;10.13;;;;;;;;;;5002512;28;20129;-65
2022/09/11 03:17:51;;;;;;;13.57;10.55;;;;;;;;;;5002569;28;20061;-64
2022/09/11 03:20:18;;;;;;;13.25;10.60;;;;;;;;;;5002343;28;20057;-65
2022/09/11 03:22:43;;;;;;;15.85;11.30;;;;;;;;;;5002109;28;20034;-64
2022/09/11 03:25:09;;;;;;;15.00;12.10;;;;;;;;;;5004062;28;20057;-65
2022/09/11 03:27:37;;;;;;;13.70;12.18;;;;;;;;;;4995438;28;20058;-64
2022/09/11 03:30:03;;;;;;;15.55;13.07;;;;;;;;;;4999604;28;20034;-63
2022/09/11 03:32:28;;;;;;;15.35;13.10;;;;;;;;;;4997277;28;20093;-65
2022/09/11 03:34:54;;;;;;;20.63;13.57;;;;;;;;;;5001718;28;20037;-64
2022/09/11 03:37:19;;;;;;;20.33;14.95;;;;;;;;;;5000617;28;20132;-64
2022/09/11 03:39:44;;;;;;;21.13;15.00;;;;;;;;;;4995401;28;20130;-64
2022/09/11 03:42:11;;;;;;;21.40;15.75;;;;;;;;;;5000782;28;20080;-64
2022/09/11 03:44:37;;;;;;;19.65;15.07;;;;;;;;;;4997088;28;20084;-65
2022/09/11 03:47:02;;;;;;;19.17;14.73;;;;;;;;;;4998719;28;20460;-65
2022/09/11 03:49:28;;;;;;;23.85;16.25;;;;;;;;;;4997759;28;20037;-65
2022/09/11 03:51:53;;;;;;;19.02;14.98;;;;;;;;;;5000064;28;20093;-65
2022/09/11 03:54:19;;;;;;;23.92;16.25;;;;;;;;;;5002203;28;20033;-65
2022/09/11 03:56:45;;;;;;;19.65;14.68;;;;;;;;;;4998284;28;20045;-64
2022/09/11 03:59:11;;;;;;;21.88;15.43;;;;;;;;;;4992458;28;20506;-64
2022/09/11 04:01:36;;;;;;;20.67;14.43;;;;;;;;;;5000026;28;20490;-65
2022/09/11 04:04:03;;;;;;;22.05;15.45;;;;;;;;;;5002504;28;20042;-65
2022/09/11 04:06:31;;;;;;;21.17;15.73;;;;;;;;;;5000441;28;20034;-64
2022/09/11 04:08:56;;;;;;;20.98;16.40;;;;;;;;;;5000690;28;20084;-65
2022/09/11 04:11:21;;;;;;;18.92;15.85;;;;;;;;;;4999864;28;20943;-66
2022/09/11 04:13:47;;;;;;;23.15;15.98;;;;;;;;;;4999015;28;20092;-64
2022/09/11 04:16:17;;;;;;;19.73;15.68;;;;;;;;;;5002639;28;20121;-65
2022/09/11 04:18:47;;;;;;;21.30;15.10;;;;;;;;;;5000131;28;20057;-64
2022/09/11 04:21:15;;;;;;;23.98;15.63;;;;;;;;;;5001802;28;20428;-65
2022/09/11 04:23:41;;;;;;;21.10;16.33;;;;;;;;;;4998508;28;20109;-65
2022/09/11 04:26:15;;;;;;;20.88;16.13;;;;;;;;;;5001028;28;20567;-64
2022/09/11 04:28:41;;;;;;;20.92;15.15;;;;;;;;;;5003073;28;20030;-64
2022/09/11 04:31:07;;;;;;;22.52;14.80;;;;;;;;;;5001736;28;20038;-65
2022/09/11 04:33:34;;;;;;;20.25;15.38;;;;;;;;;;4999995;28;20064;-64
2022/09/11 04:36:05;;;;;;;20.77;15.85;;;;;;;;;;5002068;28;20521;-64
2022/09/11 04:38:32;;;;;;;22.40;15.82;;;;;;;;;;5001346;28;20089;-65
2022/09/11 04:41:07;;;;;;;20.83;15.85;;;;;;;;;;4999875;28;20052;-64
2022/09/11 04:43:34;;;;;;;21.25;16.33;;;;;;;;;;5000105;28;20503;-65
2022/09/11 04:46:01;;;;;;;25.60;18.20;;;;;;;;;;4994740;28;20042;-66
2022/09/11 04:48:27;;;;;;;23.92;17.63;;;;;;;;;;4998367;28;20041;-66
2022/09/11 04:51:24;;;;;;;26.25;16.98;;;;;;;;;;4997221;28;20014;-64
2022/09/11 04:53:51;;;;;;;28.20;18.70;;;;;;;;;;4998524;28;20097;-66
2022/09/11 04:56:19;;;;;;;24.30;16.85;;;;;;;;;;4998996;28;20545;-64
2022/09/11 04:58:45;;;;;;;24.27;17.83;;;;;;;;;;5001572;28;20040;-65
2022/09/11 05:01:15;;;;;;;27.15;18.02;;;;;;;;;;5003484;28;20410;-64
2022/09/11 05:03:42;;;;;;;28.17;20.08;;;;;;;;;;4999934;28;20042;-65
2022/09/11 05:06:10;;;;;;;30.15;19.73;;;;;;;;;;5001625;28;20084;-65
2022/09/11 05:08:38;;;;;;;28.38;19.67;;;;;;;;;;4999595;28;20048;-65
2022/09/11 05:11:04;;;;;;;30.75;18.80;;;;;;;;;;5003913;28;20060;-65
2022/09/11 05:13:30;;;;;;;30.27;20.00;;;;;;;;;;5002078;28;20097;-66
2022/09/11 05:16:13;;;;;;;32.30;20.88;;;;;;;;;;5000616;28;20038;-64
2022/09/11 05:18:40;;;;;;;31.50;19.40;;;;;;;;;;5001461;28;20042;-63
2022/09/11 05:21:11;;;;;;;34.55;22.17;;;;;;;;;;4998822;28;20281;-64
2022/09/11 05:23:37;;;;;;;36.75;21.48;;;;;;;;;;5002598;28;20045;-64
2022/09/11 05:26:03;;;;;;;35.75;21.52;;;;;;;;;;4999686;28;20030;-66
2022/09/11 05:28:30;;;;;;;30.73;20.70;;;;;;;;;;5001624;28;20092;-66
2022/09/11 05:30:57;;;;;;;33.40;20.42;;;;;;;;;;4998906;28;20545;-66
2022/09/11 05:33:23;;;;;;;32.28;20.70;;;;;;;;;;5001914;28;20025;-65
2022/09/11 05:35:50;;;;;;;30.20;21.00;;;;;;;;;;4995746;28;20049;-65
2022/09/11 05:38:17;;;;;;;29.27;20.17;;;;;;;;;;5004334;28;20494;-66
2022/09/11 05:40:44;;;;;;;33.00;20.98;;;;;;;;;;4996119;28;20038;-66
2022/09/11 05:43:11;;;;;;;33.05;21.02;;;;;;;;;;4996006;28;20076;-65
2022/09/11 05:45:36;;;;;;;29.90;19.60;;;;;;;;;;5001434;28;20445;-65
2022/09/11 05:48:02;;;;;;;33.50;20.00;;;;;;;;;;5001659;28;20029;-65
2022/09/11 05:50:30;;;;;;;29.58;20.10;;;;;;;;;;4998769;28;20104;-65
2022/09/11 05:52:56;;;;;;;31.48;20.67;;;;;;;;;;5001981;28;20044;-64
2022/09/11 05:55:21;;;;;;;29.77;20.70;;;;;;;;;;4995902;28;20116;-65
2022/09/11 05:57:46;;;;;;;27.45;19.17;;;;;;;;;;5000206;28;20127;-64
2022/09/11 06:00:12;;;;;;;30.80;20.30;;;;;;;;;;5003619;28;20506;-64
2022/09/11 06:02:38;;;;;;;33.88;21.48;;;;;;;;;;4999498;28;20037;-62
2022/09/11 06:05:03;;;;;;;31.33;21.08;;;;;;;;;;5001311;28;20034;-65
2022/09/11 06:07:29;;;;;;;32.22;20.73;;;;;;;;;;4999123;28;20041;-65
2022/09/11 06:09:56;;;;;;;32.25;20.88;;;;;;;;;;5016542;28;20097;-63
2022/09/11 06:12:21;;;;;;;29.65;20.17;;;;;;;;;;4993564;28;20025;-64
2022/09/11 06:14:47;;;;;;;34.17;21.85;;;;;;;;;;4998085;28;20035;-64
2022/09/11 06:17:12;;;;;;;32.50;19.88;;;;;;;;;;4998421;28;20060;-65
2022/09/11 06:19:38;;;;;;;35.70;20.90;;;;;;;;;;4997490;28;20126;-65
2022/09/11 06:22:03;;;;;;;30.52;19.27;;;;;;;;;;4997275;28;20045;-64
2022/09/11 06:24:28;;;;;;;36.95;21.23;;;;;;;;;;5000800;28;20173;-64
2022/09/11 06:26:54;;;;;;;32.10;19.92;;;;;;;;;;4997104;28;20762;-64
2022/09/11 06:29:20;;;;;;;30.52;19.63;;;;;;;;;;5001570;28;20030;-64
2022/09/11 06:31:46;;;;;;;30.30;20.40;;;;;;;;;;5000930;28;20038;-65
2022/09/11 06:34:12;;;;;;;31.20;19.75;;;;;;;;;;4998633;28;20056;-64
2022/09/11 06:36:38;;;;;;;31.35;19.30;;;;;;;;;;4998423;28;20042;-64
2022/09/11 06:39:04;;;;;;;26.85;18.40;;;;;;;;;;5003437;28;20156;-64
2022/09/11 06:41:29;;;;;;;28.40;17.63;;;;;;;;;;4999082;28;20488;-65
2022/09/11 06:43:55;;;;;;;26.90;18.65;;;;;;;;;;5003207;28;20034;-66
2022/09/11 06:46:23;;;;;;;26.98;18.60;;;;;;;;;;4997641;28;20041;-64
2022/09/11 06:48:50;;;;;;;25.40;17.63;;;;;;;;;;4993758;28;20701;-66
2022/09/11 06:51:18;;;;;;;24.98;16.63;;;;;;;;;;4998439;28;20037;-66
2022/09/11 06:53:44;;;;;;;29.42;16.85;;;;;;;;;;4999819;28;20023;-64
2022/09/11 06:56:14;;;;;;;25.02;16.85;;;;;;;;;;4995424;28;20405;-63
2022/09/11 06:58:40;;;;;;;26.17;17.42;;;;;;;;;;4993720;28;20077;-65
2022/09/11 07:01:08;;;;;;;24.95;17.15;;;;;;;;;;4999500;28;20502;-65
2022/09/11 07:03:33;;;;;;;20.63;15.85;;;;;;;;;;4997913;28;20141;-65
2022/09/11 07:05:59;;;;;;;23.73;16.60;;;;;;;;;;4995911;28;20465;-64
2022/09/11 07:08:25;;;;;;;24.08;16.10;;;;;;;;;;5000391;28;20084;-64
2022/09/11 07:10:51;;;;;;;21.00;15.60;;;;;;;;;;4993328;28;20047;-64
2022/09/11 07:13:16;;;;;;;21.52;14.77;;;;;;;;;;4995625;28;20461;-66
2022/09/11 07:15:42;;;;;;;20.25;15.20;;;;;;;;;;4998436;28;20062;-66
2022/09/11 07:18:07;;;;;;;20.42;15.10;;;;;;;;;;4998349;28;20132;-66
2022/09/11 07:20:34;;;;;;;23.08;15.57;;;;;;;;;;5001018;28;20036;-64
2022/09/11 07:22:59;;;;;;;22.25;15.68;;;;;;;;;;4999355;28;20435;-64
2022/09/11 07:25:25;;;;;;;21.70;14.75;;;;;;;;;;5001099;28;20097;-66
2022/09/11 07:27:51;;;;;;;21.23;15.15;;;;;;;;;;4999792;28;20042;-65
2022/09/11 07:30:18;;;;;;;22.73;15.00;;;;;;;;;;4998504;28;20120;-65
2022/09/11 07:32:44;;;;;;;23.08;15.55;;;;;;;;;;4998017;28;20642;-68
2022/09/11 07:35:09;;;;;;;20.58;15.25;;;;;;;;;;5000035;28;20122;-65
2022/09/11 07:37:34;;;;;;;22.13;15.48;;;;;;;;;;5003212;28;20048;-67
2022/09/11 07:40:00;;;;;;;25.17;15.00;;;;;;;;;;5000556;28;20813;-65
2022/09/11 07:42:26;;;;;;;24.65;15.93;;;;;;;;;;5003914;28;20050;-65
2022/09/11 07:44:51;;;;;;;20.67;15.05;;;;;;;;;;4996042;28;20364;-64
2022/09/11 07:47:16;;;;;;;22.88;15.48;;;;;;;;;;4996235;28;20053;-65
2022/09/11 07:49:42;;;;;;;26.08;16.35;;;;;;;;;;4993605;28;20413;-64
2022/09/11 07:52:08;;;;;;;23.73;16.45;;;;;;;;;;4999435;28;20457;-64
2022/09/11 07:54:34;;;;;;;24.67;15.85;;;;;;;;;;4996412;28;20065;-66
2022/09/11 07:56:59;;;;;;;24.33;15.75;;;;;;;;;;5001204;28;20026;-66
2022/09/11 07:59:24;;;;;;;22.10;16.27;;;;;;;;;;4996869;28;20101;-64
2022/09/11 08:01:50;;;;;;;26.48;15.95;;;;;;;;;;4999353;28;20042;-65
2022/09/11 08:04:16;;;;;;;21.63;15.90;;;;;;;;;;5001848;28;20080;-67
2022/09/11 08:06:42;;;;;;;23.13;16.27;;;;;;;;;;5001900;28;20030;-66
2022/09/11 08:09:11;;;;;;;20.85;16.25;;;;;;;;;;5003250;28;20030;-64
2022/09/11 08:11:42;;;;;;;22.55;15.43;;;;;;;;;;5004306;28;20020;-65
2022/09/11 08:14:10;;;;;;;23.85;16.70;;;;;;;;;;4996507;28;20229;-64
2022/09/11 08:16:36;;;;;;;26.13;15.95;;;;;;;;;;5003983;28;20490;-65
2022/09/11 08:19:02;;;;;;;24.45;16.27;;;;;;;;;;4994843;28;20046;-65
2022/09/11 08:21:27;;;;;;;23.65;16.13;;;;;;;;;;4979797;28;20042;-65
2022/09/11 08:23:53;;;;;;;20.52;14.75;;;;;;;;;;4982131;28;20030;-64
2022/09/11 08:26:24;;;;;;;20.13;14.48;;;;;;;;;;4979775;28;20387;-65
2022/09/11 08:28:51;;;;;;;20.45;14.20;;;;;;;;;;4978417;28;20050;-64
2022/09/11 08:31:19;;;;;;;23.33;13.75;;;;;;;;;;4983385;28;20043;-64
2022/09/11 08:33:45;;;;;;;19.25;13.35;;;;;;;;;;4982946;28;20054;-64
2022/09/11 08:36:14;;;;;;;19.55;13.43;;;;;;;;;;4984416;28;20073;-65
2022/09/11 08:38:41;;;;;;;18.63;13.98;;;;;;;;;;4977567;28;20469;-65
2022/09/11 08:41:31;;;;;;;17.70;12.60;;;;;;;;;;4978428;28;20035;-65
2022/09/11 08:44:08;;;;;;;19.70;12.43;;;;;;;;;;4978536;28;20074;-64
2022/09/11 08:46:37;;;;;;;16.65;12.25;;;;;;;;;;4976694;28;20054;-65
2022/09/11 08:49:13;;;;;;;14.90;11.02;;;;;;;;;;4978090;28;20129;-66
2022/09/11 08:51:39;;;;;;;18.77;12.93;;;;;;;;;;4979206;28;20074;-64
2022/09/11 08:54:05;;;;;;;15.80;11.88;;;;;;;;;;4982336;28;20058;-64
2022/09/11 08:56:35;;;;;;;17.17;11.75;;;;;;;;;;5003898;28;20037;-64
2022/09/11 08:59:29;;;;;;;17.60;11.52;;;;;;;;;;4990262;28;20034;-63
2022/09/11 09:02:17;;;;;;;13.48;9.70;;;;;;;;;;4986037;28;20574;-65
2022/09/11 09:05:31;;;;;;;16.13;9.25;;;;;;;;;;4982113;28;20050;-65
2022/09/11 09:08:00;;;;;;;11.27;9.00;;;;;;;;;;4983017;28;20046;-64
2022/09/11 09:11:10;;;;;;;11.27;8.52;;;;;;;;;;4991514;28;20038;-64
2022/09/11 09:13:48;;;;;;;10.88;7.80;;;;;;;;;;4978508;28;20050;-66
2022/09/11 09:16:45;;;;;;;9.77;8.23;;;;;;;;;;4979653;28;20042;-65
2022/09/11 09:19:32;;;;;;;9.95;8.07;;;;;;;;;;4981078;28;20042;-64
2022/09/11 09:22:07;;;;;;;11.35;8.50;;;;;;;;;;4976700;28;20493;-65
2022/09/11 09:24:41;;;;;;;10.02;7.60;;;;;;;;;;4978386;28;20057;-64
2022/09/11 09:27:14;;;;;;;9.73;7.05;;;;;;;;;;4977343;28;20113;-64
2022/09/11 09:29:41;;;;;;;9.63;6.80;;;;;;;;;;4981150;28;20030;-64
2022/09/11 09:32:19;;;;;;;9.60;7.05;;;;;;;;;;4978514;28;20053;-66
2022/09/11 09:34:47;;;;;;;9.27;6.45;;;;;;;;;;4976942;28;20046;-66
2022/09/11 09:37:20;;;;;;;10.55;6.88;;;;;;;;;;4996818;28;20066;-64
2022/09/11 09:39:46;;;;;;;8.35;5.78;;;;;;;;;;4981116;28;20043;-66
2022/09/11 09:42:57;;;;;;;8.98;6.32;;;;;;;;;;4985495;28;20032;-66
2022/09/11 09:45:36;;;;;;;8.02;6.10;;;;;;;;;;4977756;28;20033;-65
2022/09/11 09:48:03;;;;;;;8.02;6.15;;;;;;;;;;4980926;28;20034;-65
2022/09/11 09:50:33;;;;;;;7.35;5.40;;;;;;;;;;4983108;28;20056;-65
2022/09/11 09:53:26;;;;;;;10.82;6.45;;;;;;;;;;4984733;28;20047;-65
2022/09/11 09:55:53;;;;;;;6.00;5.03;;;;;;;;;;4983604;28;20097;-64
2022/09/11 09:58:26;;;;;;;10.10;4.78;;;;;;;;;;4980745;28;20457;-64
2022/09/11 10:00:51;;;;;;;6.93;4.72;;;;;;;;;;4984170;28;20105;-65
2022/09/11 10:03:19;;;;;;;7.97;4.82;;;;;;;;;;4979807;28;20030;-66
2022/09/11 10:05:46;;;;;;;7.90;5.30;;;;;;;;;;4981921;28;20034;-66
2022/09/11 10:08:47;;;;;;;7.78;5.10;;;;;;;;;;4981145;28;20046;-64
2022/09/11 10:11:12;;;;;;;6.65;4.80;;;;;;;;;;4980269;28;20125;-64
2022/09/11 10:13:51;;;;;;;6.80;5.18;;;;;;;;;;4987533;28;20188;-65
2022/09/11 10:16:24;;;;;;;8.25;4.90;;;;;;;;;;4991411;28;20038;-64
2022/09/11 10:18:52;;;;;;;8.18;5.70;;;;;;;;;;4989046;28;20493;-64
2022/09/11 10:21:24;;;;;;;9.07;5.63;;;;;;;;;;4990978;28;20026;-64
2022/09/11 10:23:54;;;;;;;6.97;5.80;;;;;;;;;;4987226;28;20030;-66
2022/09/11 10:26:26;;;;;;;7.25;5.25;;;;;;;;;;4984271;28;20042;-64
2022/09/11 10:29:03;;;;;;;8.52;5.30;;;;;;;;;;4992139;28;20541;-64
2022/09/11 10:31:29;;;;;;;7.75;5.13;;;;;;;;;;4987539;28;20365;-64
2022/09/11 10:33:57;;;;;;;8.32;4.85;;;;;;;;;;4987042;28;20030;-64
2022/09/11 10:36:27;;;;;;;6.85;5.15;;;;;;;;;;4987346;28;20026;-65
2022/09/11 10:38:55;;;;;;;7.57;4.70;;;;;;;;;;4986859;28;20605;-64
2022/09/11 10:41:23;;;;;;;7.28;5.35;;;;;;;;;;4975873;28;20073;-65
2022/09/11 10:44:11;;;;;;;7.00;5.22;;;;;;;;;;4982716;28;20049;-64
2022/09/11 10:46:41;;;;;;;6.80;5.18;;;;;;;;;;4983675;28;20039;-65
2022/09/11 10:49:17;;;;;;;7.32;5.18;;;;;;;;;;4985808;28;20050;-65
2022/09/11 10:52:00;;;;;;;7.75;4.97;;;;;;;;;;4984216;28;20042;-65
2022/09/11 10:54:35;;;;;;;;;;;;;;;;;;4990217;28;20510;-65
2022/09/11 10:57:10;;;;;;;7.38;4.80;;;;;;;;;;4985193;28;20457;-65
2022/09/11 10:59:57;;;;;;;6.10;4.40;;;;;;;;;;5004738;28;20037;-65
2022/09/11 11:02:22;;;;;;;5.97;4.55;;;;;;;;;;4980410;28;20146;-69
2022/09/11 11:04:48;;;;;;;7.45;4.63;;;;;;;;;;4981635;28;20227;-66
2022/09/11 11:07:25;;;;;;;5.30;4.40;;;;;;;;;;4980130;28;20063;-65
2022/09/11 11:10:15;;;;;;;7.10;4.95;;;;;;;;;;4973784;28;20086;-65
2022/09/11 11:12:58;;;;;;;4.88;4.32;;;;;;;;;;4977511;28;20081;-65
2022/09/11 11:15:32;;;;;;;5.15;4.28;;;;;;;;;;4980907;28;20504;-64
2022/09/11 11:18:17;;;;;;;5.95;4.30;;;;;;;;;;4976290;28;20031;-65
2022/09/11 11:21:11;;;;;;;4.68;4.10;;;;;;;;;;4974811;28;20534;-65
2022/09/11 11:24:07;;;;;;;5.85;4.30;;;;;;;;;;4976757;28;20104;-65
2022/09/11 11:26:44;;;;;;;5.97;4.55;;;;;;;;;;4973145;28;20058;-65
2022/09/11 11:29:38;;;;;;;4.78;4.10;;;;;;;;;;4976778;28;21291;-64
2022/09/11 11:32:19;;;;;;;5.78;4.20;;;;;;;;;;4979093;28;20026;-66
2022/09/11 11:34:54;;;;;;;6.95;4.32;;;;;;;;;;4974349;28;20062;-66
2022/09/11 11:37:31;;;;;;;5.65;4.20;;;;;;;;;;4979397;28;20054;-65
2022/09/11 11:39:59;;;;;;;7.50;5.00;;;;;;;;;;4978640;28;20048;-66
2022/09/11 11:42:30;;;;;;;8.13;5.18;;;;;;;;;;4979487;28;20054;-65
2022/09/11 11:45:04;;;;;;;6.93;5.15;;;;;;;;;;4980203;28;20030;-65
2022/09/11 11:47:41;;;;;;;5.93;5.03;;;;;;;;;;4979889;28;20042;-64
2022/09/11 11:50:24;;;;;;;7.20;5.28;;;;;;;;;;4982602;28;20043;-65
2022/09/11 11:53:17;;;;;;;7.13;5.78;;;;;;;;;;4983538;28;20543;-68
2022/09/11 11:55:51;;;;;;;6.80;5.40;;;;;;;;;;4978279;28;20046;-65
2022/09/11 11:58:29;;;;;;;6.05;5.07;;;;;;;;;;4981366;28;20041;-64
2022/09/11 12:01:00;;;;;;;6.43;5.30;;;;;;;;;;4981487;28;20038;-65
2022/09/11 12:03:36;;;;;;;6.00;4.60;;;;;;;;;;4983141;28;20125;-68
2022/09/11 12:06:04;;;;;;;5.10;4.60;;;;;;;;;;4982065;28;20033;-65
2022/09/11 12:08:29;;;;;;;5.45;4.65;;;;;;;;;;5005915;28;20049;-66
2022/09/11 12:11:06;;;;;;;6.15;4.85;;;;;;;;;;4996824;28;20038;-64
2022/09/11 12:13:38;;;;;;;6.70;5.00;;;;;;;;;;5002160;28;20053;-66
2022/09/11 12:16:17;;;;;;;7.20;4.72;;;;;;;;;;4995696;28;20053;-66
2022/09/11 12:19:06;;;;;;;8.80;5.20;;;;;;;;;;4995713;28;20034;-67
2022/09/11 12:21:35;;;;;;;6.57;4.95;;;;;;;;;;5000415;28;20089;-64
2022/09/11 12:24:03;;;;;;;5.47;4.97;;;;;;;;;;4995591;28;20394;-65
2022/09/11 12:26:30;;;;;;;6.78;5.15;;;;;;;;;;4998271;28;20064;-65
2022/09/11 12:29:11;;;;;;;5.50;4.97;;;;;;;;;;4998758;28;20030;-66
2022/09/11 12:31:49;;;;;;;5.13;4.57;;;;;;;;;;5003534;28;20033;-65
2022/09/11 12:34:22;;;;;;;6.10;4.68;;;;;;;;;;5002188;28;20505;-65
2022/09/11 12:37:00;;;;;;;6.30;4.90;;;;;;;;;;4999677;28;20044;-66
2022/09/11 12:39:33;;;;;;;4.63;4.22;;;;;;;;;;4999676;28;20041;-69
2022/09/11 12:42:24;;;;;;;5.70;4.18;;;;;;;;;;5001210;28;20065;-65
2022/09/11 12:44:49;;;;;;;6.90;6.20;;;;;;;;;;4999651;28;20049;-64
2022/09/11 12:47:22;;;;;;;7.55;5.45;;;;;;;;;;5003157;28;20351;-74
2022/09/11 12:50:04;;;;;;;10.02;6.05;;;;;;;;;;5003985;28;20048;-66
2022/09/11 12:52:38;;;;;;;7.10;6.32;;;;;;;;;;4999702;28;20040;-65
2022/09/11 12:55:21;;;;;;;9.02;6.53;;;;;;;;;;5000222;28;20395;-66
2022/09/11 12:57:50;;;;;;;9.75;5.82;;;;;;;;;;4998037;28;20434;-67
2022/09/11 13:01:00;;;;;;;6.65;5.75;;;;;;;;;;4998261;28;20045;-64
2022/09/11 13:03:27;;;;;;;6.63;5.55;;;;;;;;;;4955000;28;20446;-65
2022/09/11 13:05:57;;;;;;;7.97;6.32;;;;;;;;;;4991253;28;20502;-64
2022/09/11 13:08:26;;;;;;;7.93;5.45;;;;;;;;;;4995491;28;20045;-66
2022/09/11 13:10:52;;;;;;;7.82;6.00;;;;;;;;;;4998593;28;20375;-67
2022/09/11 13:13:33;;;;;;;6.95;5.80;;;;;;;;;;5000383;28;20275;-65
2022/09/11 13:16:16;;;;;;;7.70;5.70;;;;;;;;;;4999367;28;20066;-64
2022/09/11 13:18:42;;;;;;;8.15;5.40;;;;;;;;;;5000277;28;20050;-66
2022/09/11 13:21:07;;;;;;;6.70;5.00;;;;;;;;;;4996483;28;20026;-67
2022/09/11 13:23:33;;;;;;;8.18;5.38;;;;;;;;;;4998098;28;20033;-64
2022/09/11 13:26:00;;;;;;;7.32;5.35;;;;;;;;;;4997513;28;20034;-64
2022/09/11 13:28:30;;;;;;;6.93;5.15;;;;;;;;;;5001649;28;20095;-64
2022/09/11 13:31:00;;;;;;;6.32;5.35;;;;;;;;;;4999272;28;20119;-65
2022/09/11 13:33:28;;;;;;;5.70;5.10;;;;;;;;;;4995973;28;20727;-65
2022/09/11 13:35:57;;;;;;;7.05;5.20;;;;;;;;;;5001919;28;20038;-65
2022/09/11 13:38:28;;;;;;;6.55;5.20;;;;;;;;;;4998147;28;20061;-64
2022/09/11 13:40:57;;;;;;;6.05;4.85;;;;;;;;;;5001593;28;20406;-66
2022/09/11 13:43:45;;;;;;;9.35;5.43;;;;;;;;;;5000887;28;20129;-65
2022/09/11 13:46:13;;;;;;;6.07;5.30;;;;;;;;;;5000751;28;20091;-65
2022/09/11 13:48:38;;;;;;;6.95;5.35;;;;;;;;;;4998245;28;20041;-66
2022/09/11 13:51:05;;;;;;;7.00;5.30;;;;;;;;;;5002609;28;20379;-65
2022/09/11 13:53:34;;;;;;;5.80;4.47;;;;;;;;;;4996693;28;20441;-65
2022/09/11 13:55:59;;;;;;;8.30;4.90;;;;;;;;;;4996000;28;20110;-66
2022/09/11 13:58:34;;;;;;;8.15;5.60;;;;;;;;;;5002334;28;20577;-65
2022/09/11 14:01:13;;;;;;;6.93;5.45;;;;;;;;;;4996670;28;20077;-65
2022/09/11 14:03:45;;;;;;;8.90;5.47;;;;;;;;;;5001255;28;20046;-64
2022/09/11 14:06:17;;;;;;;8.05;5.72;;;;;;;;;;4995045;28;20026;-65
2022/09/11 14:08:50;;;;;;;7.45;5.05;;;;;;;;;;5006273;28;20030;-64
2022/09/11 14:11:30;;;;;;;10.23;5.03;;;;;;;;;;4997898;28;20026;-64
2022/09/11 14:14:07;;;;;;;8.10;5.22;;;;;;;;;;4995556;28;20083;-65
2022/09/11 14:16:36;;;;;;;10.05;5.20;;;;;;;;;;4996429;28;20531;-64
2022/09/11 14:19:21;;;;;;;5.43;4.53;;;;;;;;;;4998811;28;20038;-64
2022/09/11 14:21:49;;;;;;;8.43;5.35;;;;;;;;;;4999894;28;20041;-65
2022/09/11 14:24:33;;;;;;;7.15;4.68;;;;;;;;;;5001187;28;20014;-64
2022/09/11 14:27:22;;;;;;;5.10;4.20;;;;;;;;;;4998433;28;20713;-64
2022/09/11 14:29:52;;;;;;;6.13;3.80;;;;;;;;;;4998349;28;20037;-64
2022/09/11 14:32:26;;;;;;;4.38;3.88;;;;;;;;;;4998624;28;20555;-65
2022/09/11 14:34:52;;;;;;;5.93;4.10;;;;;;;;;;4998439;28;20332;-63
2022/09/11 14:37:18;;;;;;;5.60;3.97;;;;;;;;;;5002480;28;20094;-64
2022/09/11 14:40:06;;;;;;;5.50;4.10;;;;;;;;;;4996184;28;20049;-65
2022/09/11 14:42:34;;;;;;;5.03;4.30;;;;;;;;;;5001974;28;20049;-64
2022/09/11 14:45:21;;;;;;;10.25;4.43;;;;;;;;;;5000139;28;20378;-65
2022/09/11 14:47:47;;;;;;;4.63;4.22;;;;;;;;;;4995827;28;20400;-65
2022/09/11 14:50:13;;;;;;;5.80;4.80;;;;;;;;;;4998155;28;20560;-63
2022/09/11 14:52:40;;;;;;;5.75;4.93;;;;;;;;;;5000494;28;20045;-64
2022/09/11 14:55:06;;;;;;;5.35;4.47;;;;;;;;;;5000206;28;20030;-64
2022/09/11 14:57:33;;;;;;;5.32;4.82;;;;;;;;;;5001433;28;20189;-64